createdAt,value
2019-02-28T00:00:40.669Z,6.80
2019-02-28T00:03:11.527Z,6.80
2019-02-28T00:05:39.867Z,6.70
2019-02-28T00:32:05.752Z,6.30
2019-02-28T00:34:36.339Z,6.20
2019-02-28T00:37:04.349Z,6.20
2019-02-28T00:39:34.899Z,6.20
2019-02-28T00:42:02.707Z,6.20
2019-02-28T00:44:31.427Z,6.20
2019-02-28T00:46:59.845Z,6.10
2019-02-28T00:49:28.218Z,6.10
2019-02-28T00:51:56.538Z,6.10
2019-02-28T00:54:24.879Z,6.10
2019-02-28T00:56:53.176Z,6.10
2019-02-28T00:59:21.489Z,6.10
2019-02-28T01:01:49.769Z,6.00
2019-02-28T01:04:18.257Z,6.00
2019-02-28T01:06:46.565Z,6.00
2019-02-28T01:09:14.860Z,6.00
2019-02-28T01:11:44.809Z,6.00
2019-02-28T01:14:13.197Z,6.00
2019-02-28T01:16:41.554Z,6.00
2019-02-28T01:19:10.230Z,5.90
2019-02-28T01:21:38.731Z,5.90
2019-02-28T01:24:07.032Z,5.90
2019-02-28T01:26:35.337Z,5.90
2019-02-28T01:29:03.677Z,5.90
2019-02-28T01:31:31.994Z,5.90
2019-02-28T01:34:00.370Z,5.80
2019-02-28T01:36:28.652Z,5.80
2019-02-28T01:38:58.068Z,5.80
2019-02-28T01:41:27.002Z,5.70
2019-02-28T01:43:55.311Z,5.70
2019-02-28T01:46:23.602Z,5.70
2019-02-28T01:48:54.574Z,5.60
2019-02-28T01:51:21.912Z,5.60
2019-02-28T01:53:50.399Z,5.60
2019-02-28T01:56:20.292Z,5.60
2019-02-28T01:58:50.347Z,5.50
2019-02-28T02:01:18.777Z,5.50
2019-02-28T02:03:47.065Z,5.50
2019-02-28T02:06:15.370Z,5.50
2019-02-28T02:08:45.304Z,5.50
2019-02-28T02:11:13.618Z,5.50
2019-02-28T02:13:41.926Z,5.40
2019-02-28T02:16:10.238Z,5.40
2019-02-28T02:18:40.228Z,5.40
2019-02-28T02:21:08.756Z,5.40
2019-02-28T02:23:37.053Z,5.40
2019-02-28T02:26:08.468Z,5.40
2019-02-28T02:28:35.472Z,5.30
2019-02-28T02:31:04.464Z,5.30
2019-02-28T02:33:32.945Z,5.20
2019-02-28T02:36:01.244Z,5.30
2019-02-28T02:38:29.600Z,5.30
2019-02-28T02:41:00.522Z,5.20
2019-02-28T02:43:28.024Z,5.20
2019-02-28T02:45:56.306Z,5.20
2019-02-28T02:48:24.613Z,5.20
2019-02-28T02:50:52.970Z,5.20
2019-02-28T02:53:21.272Z,5.20
2019-02-28T02:55:49.582Z,5.20
2019-02-28T02:58:17.874Z,5.20
2019-02-28T03:00:50.160Z,5.20
2019-02-28T03:03:16.203Z,5.20
2019-02-28T03:05:44.558Z,5.20
2019-02-28T03:08:12.974Z,5.10
2019-02-28T03:10:41.305Z,5.10
2019-02-28T03:13:09.610Z,5.10
2019-02-28T03:15:37.961Z,5.10
2019-02-28T03:18:06.285Z,5.10
2019-02-28T03:20:34.724Z,5.10
2019-02-28T03:23:03.328Z,5.10
2019-02-28T03:25:31.959Z,5.10
2019-02-28T03:28:00.294Z,5.10
2019-02-28T03:30:32.883Z,5.10
2019-02-28T03:32:58.846Z,5.10
2019-02-28T03:35:40.452Z,5.10
2019-02-28T03:38:16.605Z,5.00
2019-02-28T03:40:44.923Z,5.00
2019-02-28T03:43:14.944Z,5.00
2019-02-28T03:45:43.299Z,5.00
2019-02-28T03:48:11.715Z,5.00
2019-02-28T03:50:40.073Z,5.00
2019-02-28T03:53:08.442Z,4.90
2019-02-28T03:55:40.878Z,4.90
2019-02-28T03:58:06.794Z,4.90
2019-02-28T04:00:35.171Z,4.90
2019-02-28T04:03:03.562Z,4.80
2019-02-28T04:05:31.930Z,4.80
2019-02-28T04:08:00.335Z,4.80
2019-02-28T04:10:28.690Z,4.80
2019-02-28T04:12:58.696Z,4.80
2019-02-28T04:15:27.006Z,4.80
2019-02-28T04:17:55.366Z,4.80
2019-02-28T04:20:23.673Z,4.80
2019-02-28T04:22:58.805Z,4.80
2019-02-28T04:25:24.163Z,4.80
2019-02-28T04:27:52.094Z,4.80
2019-02-28T04:30:20.389Z,4.90
2019-02-28T04:32:48.702Z,4.90
2019-02-28T04:35:17.069Z,4.90
2019-02-28T04:37:47.160Z,4.90
2019-02-28T04:40:15.462Z,4.80
2019-02-28T04:42:43.851Z,4.80
2019-02-28T04:45:13.309Z,4.80
2019-02-28T04:47:41.857Z,4.80
2019-02-28T04:50:12.584Z,4.80
2019-02-28T04:52:46.646Z,4.80
2019-02-28T04:55:11.142Z,4.70
2019-02-28T04:57:39.439Z,4.70
2019-02-28T05:00:12.839Z,4.70
2019-02-28T05:02:41.209Z,4.70
2019-02-28T05:05:12.628Z,4.60
2019-02-28T05:07:39.613Z,4.60
2019-02-28T05:10:09.733Z,4.60
2019-02-28T05:12:40.034Z,4.60
2019-02-28T05:15:13.341Z,4.60
2019-02-28T05:17:41.721Z,4.60
2019-02-28T05:20:12.202Z,4.50
2019-02-28T05:22:41.140Z,4.50
2019-02-28T05:25:10.741Z,4.50
2019-02-28T05:27:39.100Z,4.50
2019-02-28T05:30:17.957Z,4.50
2019-02-28T05:33:00.562Z,4.50
2019-02-28T05:35:28.864Z,4.50
2019-02-28T05:37:57.210Z,4.50
2019-02-28T05:40:25.541Z,4.50
2019-02-28T05:42:54.603Z,4.50
2019-02-28T05:45:24.074Z,4.50
2019-02-28T05:47:52.442Z,4.50
2019-02-28T05:50:20.841Z,4.50
2019-02-28T05:52:49.196Z,4.50
2019-02-28T05:55:17.490Z,4.50
2019-02-28T05:57:45.896Z,4.40
2019-02-28T06:00:17.065Z,4.40
2019-02-28T06:02:45.441Z,4.40
2019-02-28T06:05:13.758Z,4.40
2019-02-28T06:07:42.138Z,4.40
2019-02-28T06:10:13.385Z,4.40
2019-02-28T06:12:43.649Z,4.40
2019-02-28T06:15:14.313Z,4.40
2019-02-28T06:17:42.621Z,4.40
2019-02-28T06:20:11.960Z,4.40
2019-02-28T06:22:40.362Z,4.40
2019-02-28T06:25:13.309Z,4.40
2019-02-28T06:27:45.642Z,4.40
2019-02-28T06:30:17.153Z,4.40
2019-02-28T06:32:45.562Z,4.40
2019-02-28T06:35:17.663Z,4.40
2019-02-28T06:37:43.873Z,4.40
2019-02-28T06:40:15.800Z,4.40
2019-02-28T06:42:46.750Z,4.40
2019-02-28T06:45:19.739Z,4.40
2019-02-28T06:47:49.899Z,4.40
2019-02-28T06:50:18.060Z,4.40
2019-02-28T06:52:46.372Z,4.50
2019-02-28T06:55:16.312Z,4.60
2019-02-28T06:57:44.709Z,4.70
2019-02-28T07:00:14.854Z,4.70
2019-02-28T07:02:43.318Z,4.80
2019-02-28T07:05:11.687Z,4.90
2019-02-28T07:07:41.701Z,5.00
2019-02-28T07:10:35.245Z,5.10
2019-02-28T07:13:05.494Z,5.20
2019-02-28T07:15:34.152Z,5.40
2019-02-28T07:18:02.481Z,5.40
2019-02-28T07:20:30.812Z,5.60
2019-02-28T07:22:59.343Z,5.70
2019-02-28T07:25:27.720Z,5.80
2019-02-28T07:27:56.477Z,5.90
2019-02-28T07:30:25.474Z,6.00
2019-02-28T07:32:53.782Z,6.10
2019-02-28T07:35:22.103Z,6.10
2019-02-28T07:37:54.354Z,6.20
2019-02-28T07:40:20.817Z,6.20
2019-02-28T07:42:49.197Z,6.30
2019-02-28T07:45:17.567Z,6.40
2019-02-28T07:47:51.718Z,6.50
2019-02-28T07:50:16.314Z,6.50
2019-02-28T07:52:44.623Z,6.60
2019-02-28T07:55:17.215Z,6.70
2019-02-28T07:57:51.181Z,6.70
2019-02-28T08:00:18.726Z,6.80
2019-02-28T08:02:47.239Z,6.90
2019-02-28T08:05:15.695Z,7.00
2019-02-28T08:07:50.338Z,7.00
2019-02-28T08:10:17.000Z,7.10
2019-02-28T08:12:45.294Z,7.20
2019-02-28T08:15:21.167Z,7.20
2019-02-28T08:17:46.735Z,7.30
2019-02-28T08:20:15.035Z,7.30
2019-02-28T08:22:43.338Z,7.40
2019-02-28T08:25:13.577Z,7.40
2019-02-28T08:27:41.878Z,7.50
2019-02-28T08:30:19.458Z,7.50
2019-02-28T08:32:48.734Z,7.50
2019-02-28T08:35:17.122Z,7.50
2019-02-28T08:37:45.416Z,7.50
2019-02-28T08:40:21.820Z,7.50
2019-02-28T08:42:50.158Z,7.50
2019-02-28T08:45:18.457Z,7.50
2019-02-28T08:47:46.838Z,7.60
2019-02-28T08:50:23.445Z,7.60
2019-02-28T08:52:57.422Z,7.60
2019-02-28T08:55:29.140Z,7.70
2019-02-28T08:58:04.060Z,7.80
2019-02-28T09:00:31.040Z,7.80
2019-02-28T09:02:56.988Z,7.90
2019-02-28T09:05:26.195Z,8.00
2019-02-28T09:07:55.373Z,8.10
2019-02-28T09:10:25.250Z,8.20
2019-02-28T09:12:53.549Z,8.30
2019-02-28T09:15:22.074Z,8.40
2019-02-28T09:17:50.381Z,8.50
2019-02-28T09:20:18.746Z,8.60
2019-02-28T09:22:47.114Z,8.70
2019-02-28T09:25:21.117Z,8.80
2019-02-28T09:27:48.077Z,8.90
2019-02-28T09:30:19.363Z,8.90
2019-02-28T09:32:48.176Z,9.00
2019-02-28T09:35:19.601Z,9.10
2019-02-28T09:37:47.285Z,9.20
2019-02-28T09:40:17.401Z,9.30
2019-02-28T09:42:47.986Z,9.40
2019-02-28T09:45:18.700Z,9.40
2019-02-28T09:47:47.129Z,9.50
2019-02-28T09:50:19.303Z,9.60
2019-02-28T09:52:47.598Z,9.70
2019-02-28T09:55:15.932Z,9.70
2019-02-28T09:57:44.534Z,9.80
2019-02-28T10:00:24.730Z,9.90
2019-02-28T10:02:53.157Z,10.00
2019-02-28T10:05:21.842Z,10.10
2019-02-28T10:07:50.320Z,10.20
2019-02-28T10:10:25.693Z,10.30
2019-02-28T10:12:54.002Z,10.40
2019-02-28T10:15:23.069Z,10.50
2019-02-28T10:17:51.365Z,10.60
2019-02-28T10:20:38.042Z,10.70
2019-02-28T10:23:06.445Z,10.80
2019-02-28T10:25:40.979Z,10.90
2019-02-28T10:28:05.542Z,10.90
2019-02-28T10:30:33.970Z,10.90
2019-02-28T10:33:02.344Z,11.00
2019-02-28T10:35:33.433Z,11.00
2019-02-28T10:38:00.756Z,11.10
2019-02-28T10:40:30.190Z,11.10
2019-02-28T10:42:58.541Z,11.20
2019-02-28T10:45:27.400Z,11.20
2019-02-28T10:47:55.789Z,11.30
2019-02-28T10:50:32.109Z,11.30
2019-02-28T10:53:16.058Z,11.40
2019-02-28T10:55:44.802Z,11.50
2019-02-28T10:58:15.489Z,11.50
2019-02-28T11:00:45.039Z,11.60
2019-02-28T11:03:15.003Z,11.60
2019-02-28T11:05:45.261Z,11.60
2019-02-28T11:08:19.044Z,11.60
2019-02-28T11:10:46.981Z,11.60
2019-02-28T11:13:18.203Z,11.70
2019-02-28T11:15:49.395Z,11.80
2019-02-28T11:18:17.990Z,11.80
2019-02-28T11:20:46.401Z,11.80
2019-02-28T11:23:15.879Z,11.90
2019-02-28T11:25:44.586Z,11.90
2019-02-28T11:28:13.717Z,11.90
2019-02-28T11:30:44.847Z,12.00
2019-02-28T11:33:12.833Z,12.00
2019-02-28T11:35:41.332Z,12.10
2019-02-28T11:38:09.664Z,12.20
2019-02-28T11:40:40.463Z,12.20
2019-02-28T11:43:08.234Z,12.40
2019-02-28T11:45:44.697Z,12.40
2019-02-28T11:48:19.333Z,12.50
2019-02-28T11:50:46.027Z,12.50
2019-02-28T11:53:14.360Z,12.60
2019-02-28T11:55:42.726Z,12.60
2019-02-28T11:58:16.528Z,12.70
2019-02-28T12:00:41.259Z,12.70
2019-02-28T12:03:09.573Z,12.80
2019-02-28T12:05:37.877Z,12.90
2019-02-28T12:08:09.263Z,12.90
2019-02-28T12:10:58.458Z,12.90
2019-02-28T12:13:25.841Z,12.90
2019-02-28T12:16:06.634Z,12.90
2019-02-28T12:18:39.545Z,12.90
2019-02-28T12:21:05.171Z,12.90
2019-02-28T12:23:33.615Z,12.90
2019-02-28T12:26:02.047Z,13.00
2019-02-28T12:28:30.366Z,13.00
2019-02-28T12:31:00.341Z,13.00
2019-02-28T12:33:28.839Z,13.00
2019-02-28T12:35:57.240Z,13.00
2019-02-28T12:38:28.928Z,12.80
2019-02-28T12:40:55.657Z,12.60
2019-02-28T12:43:23.960Z,12.50
2019-02-28T12:45:53.617Z,12.30
2019-02-28T12:48:22.238Z,12.20
2019-02-28T12:50:50.626Z,12.10
2019-02-28T12:53:24.311Z,12.00
2019-02-28T12:55:49.050Z,12.00
2019-02-28T12:58:17.406Z,12.00
2019-02-28T13:00:47.126Z,12.10
2019-02-28T13:03:19.250Z,12.10
2019-02-28T13:05:48.189Z,12.10
2019-02-28T13:08:15.571Z,12.10
2019-02-28T13:10:43.953Z,12.10
2019-02-28T13:13:12.274Z,12.10
2019-02-28T13:15:40.735Z,12.10
2019-02-28T13:18:09.547Z,12.00
2019-02-28T13:20:41.146Z,12.00
2019-02-28T13:23:09.552Z,12.00
2019-02-28T13:25:37.918Z,12.00
2019-02-28T13:28:07.768Z,12.00
2019-02-28T13:30:38.642Z,12.00
2019-02-28T13:33:06.168Z,12.10
2019-02-28T13:35:37.274Z,12.10
2019-02-28T13:38:05.717Z,12.20
2019-02-28T13:40:34.051Z,12.20
2019-02-28T13:43:02.421Z,12.20
2019-02-28T13:45:30.839Z,12.20
2019-02-28T13:47:59.203Z,12.30
2019-02-28T13:50:29.314Z,12.40
2019-02-28T13:53:02.514Z,12.50
2019-02-28T13:55:27.764Z,12.60
2019-02-28T13:57:56.126Z,12.80
2019-02-28T14:00:29.552Z,12.80
2019-02-28T14:03:08.945Z,12.90
2019-02-28T14:05:38.700Z,12.90
2019-02-28T14:08:09.857Z,12.90
2019-02-28T14:10:33.554Z,12.90
2019-02-28T14:13:03.886Z,13.00
2019-02-28T14:15:38.045Z,13.00
2019-02-28T14:18:07.568Z,13.00
2019-02-28T14:20:37.448Z,13.00
2019-02-28T14:23:05.824Z,13.00
2019-02-28T14:25:53.658Z,13.10
2019-02-28T14:28:22.031Z,13.20
2019-02-28T14:30:59.114Z,13.20
2019-02-28T14:33:27.465Z,13.30
2019-02-28T14:35:55.833Z,13.30
2019-02-28T14:38:26.037Z,13.20
2019-02-28T14:40:54.296Z,13.20
2019-02-28T14:43:22.615Z,13.20
2019-02-28T14:45:50.929Z,13.20
2019-02-28T14:48:19.221Z,13.20
2019-02-28T14:50:50.723Z,13.10
2019-02-28T14:53:17.566Z,13.10
2019-02-28T14:55:45.866Z,13.00
2019-02-28T14:58:15.805Z,13.00
2019-02-28T15:00:44.205Z,12.90
2019-02-28T15:03:14.689Z,12.80
2019-02-28T15:05:44.033Z,12.80
2019-02-28T15:08:15.357Z,12.80
2019-02-28T15:10:42.730Z,12.70
2019-02-28T15:13:11.126Z,12.70
2019-02-28T15:15:39.559Z,12.70
2019-02-28T15:18:11.016Z,12.60
2019-02-28T15:20:37.953Z,12.60
2019-02-28T15:23:06.254Z,12.60
2019-02-28T15:25:34.636Z,12.60
2019-02-28T15:28:02.929Z,12.60
2019-02-28T15:30:40.201Z,12.60
2019-02-28T15:33:08.507Z,12.60
2019-02-28T15:35:36.898Z,12.60
2019-02-28T15:38:14.227Z,12.60
2019-02-28T15:40:45.026Z,12.60
2019-02-28T15:43:17.134Z,12.60
2019-02-28T15:45:43.707Z,12.60
2019-02-28T15:48:12.126Z,12.60
2019-02-28T15:50:40.485Z,12.60
2019-02-28T15:53:11.424Z,12.60
2019-02-28T15:55:38.797Z,12.60
2019-02-28T15:58:07.272Z,12.60
2019-02-28T16:00:36.491Z,12.60
2019-02-28T16:03:05.573Z,12.60
2019-02-28T16:05:33.890Z,12.50
2019-02-28T16:08:09.008Z,12.40
2019-02-28T16:10:33.539Z,12.20
2019-02-28T16:13:01.859Z,12.10
2019-02-28T16:15:33.029Z,11.90
2019-02-28T16:18:01.404Z,11.80
2019-02-28T16:20:31.956Z,11.80
2019-02-28T16:22:59.929Z,11.70
2019-02-28T16:25:33.624Z,11.60
2019-02-28T16:28:04.561Z,11.50
2019-02-28T16:30:32.766Z,11.50
2019-02-28T16:33:01.451Z,11.40
2019-02-28T16:35:29.756Z,11.40
2019-02-28T16:37:58.225Z,11.30
2019-02-28T16:40:46.057Z,11.30
2019-02-28T16:43:17.390Z,11.30
2019-02-28T16:45:47.732Z,11.30
2019-02-28T16:48:16.134Z,11.30
2019-02-28T16:50:44.590Z,11.20
2019-02-28T16:53:16.022Z,11.20
2019-02-28T16:55:43.037Z,11.20
2019-02-28T16:58:11.429Z,11.20
2019-02-28T17:00:42.411Z,11.20
2019-02-28T17:03:09.912Z,11.20
2019-02-28T17:05:38.199Z,11.20
2019-02-28T17:08:06.890Z,11.20
2019-02-28T17:10:36.465Z,11.20
2019-02-28T17:13:19.346Z,11.10
2019-02-28T17:16:07.613Z,11.10
2019-02-28T17:18:37.565Z,11.10
2019-02-28T17:21:05.929Z,11.10
2019-02-28T17:23:36.867Z,11.10
2019-02-28T17:26:04.406Z,11.10
2019-02-28T17:28:49.362Z,11.10
2019-02-28T17:31:34.724Z,11.10
2019-02-28T17:34:24.510Z,11.10
2019-02-28T17:36:52.920Z,11.00
2019-02-28T17:39:21.230Z,11.00
2019-02-28T17:41:49.523Z,11.00
2019-02-28T17:44:33.927Z,11.00
2019-02-28T17:47:29.839Z,11.00
2019-02-28T17:50:16.636Z,11.00
2019-02-28T17:53:19.998Z,11.00
2019-02-28T17:56:22.569Z,11.00
2019-02-28T17:58:50.433Z,11.00
2019-02-28T18:01:40.253Z,11.00
2019-02-28T18:04:24.031Z,10.90
2019-02-28T18:07:08.378Z,11.00
2019-02-28T18:09:48.209Z,11.00
2019-02-28T18:12:35.914Z,11.00
2019-02-28T18:15:32.309Z,10.90
2019-02-28T18:18:37.288Z,11.00
2019-02-28T18:21:08.915Z,11.00
2019-02-28T18:24:03.740Z,10.90
2019-02-28T18:26:58.869Z,11.00
2019-02-28T18:30:05.311Z,10.90
2019-02-28T18:32:34.252Z,10.90
2019-02-28T18:35:02.690Z,10.90
2019-02-28T18:37:30.992Z,10.90
2019-02-28T18:39:59.438Z,10.90
2019-02-28T18:42:27.752Z,10.90
2019-02-28T18:44:56.113Z,10.90
2019-02-28T18:47:24.537Z,10.90
2019-02-28T18:49:52.906Z,10.80
2019-02-28T18:52:21.209Z,10.80
2019-02-28T18:54:49.513Z,10.80
2019-02-28T18:57:37.249Z,10.80
2019-02-28T19:00:13.285Z,10.80
2019-02-28T19:02:41.591Z,10.80
2019-02-28T19:05:09.903Z,10.80
2019-02-28T19:07:38.188Z,10.70
2019-02-28T19:10:09.289Z,10.70
2019-02-28T19:12:37.666Z,10.70
2019-02-28T19:15:09.269Z,10.70
2019-02-28T19:17:37.645Z,10.70
2019-02-28T19:20:08.711Z,10.70
2019-02-28T19:22:37.077Z,10.70
2019-02-28T19:25:08.338Z,10.60
2019-02-28T19:27:36.714Z,10.60
2019-02-28T19:30:14.050Z,10.60
2019-02-28T19:32:42.350Z,10.60
2019-02-28T19:35:10.735Z,10.60
2019-02-28T19:37:39.089Z,10.60
2019-02-28T19:40:09.918Z,10.50
2019-02-28T19:42:38.317Z,10.50
2019-02-28T19:45:15.628Z,10.50
2019-02-28T19:47:43.941Z,10.50
2019-02-28T19:50:12.980Z,10.50
2019-02-28T19:52:41.366Z,10.50
2019-02-28T19:55:12.789Z,10.50
2019-02-28T19:57:41.274Z,10.50
2019-02-28T20:00:18.076Z,10.50
2019-02-28T20:02:46.389Z,10.50
2019-02-28T20:05:14.675Z,10.50
2019-02-28T20:07:43.037Z,10.50
2019-02-28T20:10:14.750Z,10.50
2019-02-28T20:12:43.043Z,10.50
2019-02-28T20:15:16.169Z,10.50
2019-02-28T20:17:44.470Z,10.50
2019-02-28T20:20:22.493Z,10.50
2019-02-28T20:22:50.936Z,10.50
2019-02-28T20:25:19.335Z,10.50
2019-02-28T20:27:47.668Z,10.50
2019-02-28T20:30:21.423Z,10.50
2019-02-28T20:32:49.753Z,10.50
2019-02-28T20:35:26.104Z,10.50
2019-02-28T20:37:48.117Z,10.50
2019-02-28T20:40:36.623Z,10.50
2019-02-28T20:43:05.644Z,10.50
2019-02-28T20:45:53.526Z,10.50
2019-02-28T20:48:21.930Z,10.50
2019-02-28T20:50:53.094Z,10.50
2019-02-28T20:53:21.470Z,10.50
2019-02-28T20:55:49.801Z,10.50
2019-02-28T20:58:18.439Z,10.50
2019-02-28T21:00:46.856Z,10.50
2019-02-28T21:03:15.173Z,10.50
2019-02-28T21:05:43.470Z,10.50
2019-02-28T21:08:11.789Z,10.50
2019-02-28T21:10:40.161Z,10.50
2019-02-28T21:13:10.186Z,10.50
2019-02-28T21:15:38.573Z,10.50
2019-02-28T21:18:06.873Z,10.50
2019-02-28T21:20:35.378Z,10.40
2019-02-28T21:23:04.268Z,10.50
2019-02-28T21:25:32.582Z,10.50
2019-02-28T21:28:01.034Z,10.50
2019-02-28T21:30:29.397Z,10.50
2019-02-28T21:32:57.740Z,10.50
2019-02-28T21:35:26.187Z,10.50
2019-02-28T21:37:54.569Z,10.50
2019-02-28T21:40:23.457Z,10.50
2019-02-28T21:42:51.784Z,10.40
2019-02-28T21:45:22.365Z,10.50
2019-02-28T21:47:50.704Z,10.50
2019-02-28T21:50:19.091Z,10.50
2019-02-28T21:52:47.474Z,10.50
2019-02-28T21:55:17.426Z,10.50
2019-02-28T21:57:45.736Z,10.50
2019-02-28T22:00:19.953Z,10.50
2019-02-28T22:02:48.301Z,10.50
2019-02-28T22:05:18.314Z,10.50
2019-02-28T22:07:46.705Z,10.50
2019-02-28T22:10:15.924Z,10.40
2019-02-28T22:12:44.246Z,10.50
2019-02-28T22:15:23.690Z,10.40
2019-02-28T22:17:51.977Z,10.40
2019-02-28T22:20:20.374Z,10.40
2019-02-28T22:22:48.758Z,10.40
2019-02-28T22:25:17.597Z,10.40
2019-02-28T22:27:45.911Z,10.40
2019-02-28T22:30:38.767Z,10.40
2019-02-28T22:33:08.701Z,10.40
2019-02-28T22:35:38.654Z,10.40
2019-02-28T22:38:07.046Z,10.40
2019-02-28T22:40:35.399Z,10.40
2019-02-28T22:43:04.540Z,10.40
2019-02-28T22:45:32.945Z,10.40
2019-02-28T22:48:01.289Z,10.40
2019-02-28T22:50:29.700Z,10.40
2019-02-28T22:52:58.050Z,10.40
2019-02-28T22:55:26.353Z,10.40
2019-02-28T22:57:54.679Z,10.40
2019-02-28T23:00:47.196Z,10.40
2019-02-28T23:03:15.610Z,10.40
2019-02-28T23:05:44.322Z,10.40
2019-02-28T23:08:12.626Z,10.40
2019-02-28T23:10:40.928Z,10.40
2019-02-28T23:13:09.325Z,10.40
2019-02-28T23:15:37.626Z,10.40
2019-02-28T23:18:05.931Z,10.40
2019-02-28T23:20:34.312Z,10.40
2019-02-28T23:23:02.630Z,10.30
2019-02-28T23:25:30.931Z,10.30
2019-02-28T23:28:22.872Z,10.30
2019-02-28T23:30:56.905Z,10.30
2019-02-28T23:33:25.377Z,10.30
2019-02-28T23:35:53.809Z,10.30
2019-02-28T23:38:22.129Z,10.30
2019-02-28T23:40:50.517Z,10.20
2019-02-28T23:43:19.046Z,10.20
2019-02-28T23:45:47.483Z,10.20
2019-02-28T23:48:35.246Z,10.20
2019-02-28T23:51:04.548Z,10.20
2019-02-28T23:53:32.844Z,10.20
2019-02-28T23:56:01.197Z,10.20
2019-02-28T23:58:29.512Z,10.20
